Time;durP1;ratioP1;P1;durP2;ratioP2;P2;SDS_P1;SDS_P2;PMS_P1;PMS_P2;Temp;Humidity;BMP_temperature;BMP_pressure;BME280_temperature;BME280_humidity;BME280_pressure;Samples;Min_cycle;Max_cycle;Signal;HPM_P1;HPM_P2
2023/11/10 00:01:28;;;;;;;18.05;7.20;;;;;;;;;;5061768;28;20082;-69
2023/11/10 00:03:53;;;;;;;17.63;7.45;;;;;;;;;;5076780;28;20366;-69
2023/11/10 00:06:18;;;;;;;16.27;6.97;;;;;;;;;;5076063;28;20020;-69
2023/11/10 00:08:44;;;;;;;19.35;8.18;;;;;;;;;;5076600;28;20389;-69
2023/11/10 00:11:09;;;;;;;16.60;7.13;;;;;;;;;;5076590;28;20032;-69
2023/11/10 00:13:35;;;;;;;18.55;7.38;;;;;;;;;;5068734;28;20389;-69
2023/11/10 00:16:00;;;;;;;20.42;7.05;;;;;;;;;;5059631;28;20024;-69
2023/11/10 00:18:25;;;;;;;13.95;6.68;;;;;;;;;;5072937;28;20078;-69
2023/11/10 00:20:51;;;;;;;14.98;6.20;;;;;;;;;;5068791;28;20028;-69
2023/11/10 00:23:18;;;;;;;15.48;6.50;;;;;;;;;;5054457;28;20051;-69
2023/11/10 00:25:43;;;;;;;17.25;7.45;;;;;;;;;;5071113;28;20040;-69
2023/11/10 00:28:08;;;;;;;14.13;5.78;;;;;;;;;;5061695;28;20021;-69
2023/11/10 00:30:34;;;;;;;15.82;7.00;;;;;;;;;;5056985;28;20409;-69
2023/11/10 00:32:59;;;;;;;14.65;6.75;;;;;;;;;;5063196;28;20051;-69
2023/11/10 00:35:25;;;;;;;13.23;5.60;;;;;;;;;;5065528;28;20028;-69
2023/11/10 00:37:51;;;;;;;15.02;5.38;;;;;;;;;;5087421;28;20485;-69
2023/11/10 00:40:16;;;;;;;15.75;5.60;;;;;;;;;;5075698;28;20074;-69
2023/11/10 00:42:42;;;;;;;16.02;6.57;;;;;;;;;;5069478;28;20028;-69
2023/11/10 00:45:07;;;;;;;17.65;5.47;;;;;;;;;;5058860;28;20090;-69
2023/11/10 00:47:33;;;;;;;13.00;5.30;;;;;;;;;;5069428;28;20017;-69
2023/11/10 00:49:58;;;;;;;10.60;4.93;;;;;;;;;;5060210;28;20067;-68
2023/11/10 00:52:23;;;;;;;12.10;5.75;;;;;;;;;;5062814;28;20116;-69
2023/11/10 00:54:49;;;;;;;17.60;6.72;;;;;;;;;;5075424;28;20029;-69
2023/11/10 00:57:14;;;;;;;17.85;6.22;;;;;;;;;;5074851;28;20028;-69
2023/11/10 00:59:40;;;;;;;14.88;6.00;;;;;;;;;;5057472;28;20028;-69
2023/11/10 01:02:05;;;;;;;18.70;5.45;;;;;;;;;;5068217;28;20028;-69
2023/11/10 01:04:30;;;;;;;12.27;5.10;;;;;;;;;;5050257;28;20107;-69
2023/11/10 01:06:56;;;;;;;13.52;5.68;;;;;;;;;;5074851;28;20024;-69
2023/11/10 01:09:21;;;;;;;17.23;5.55;;;;;;;;;;5074865;28;20048;-69
2023/11/10 01:11:46;;;;;;;16.52;6.88;;;;;;;;;;5074985;28;20025;-69
2023/11/10 01:14:11;;;;;;;19.67;5.50;;;;;;;;;;5069085;28;20086;-69
2023/11/10 01:16:37;;;;;;;19.05;5.60;;;;;;;;;;5037029;28;20028;-69
2023/11/10 01:19:02;;;;;;;13.55;5.72;;;;;;;;;;5054825;28;20028;-69
2023/11/10 01:21:27;;;;;;;15.40;7.32;;;;;;;;;;5073651;28;20031;-69
2023/11/10 01:23:53;;;;;;;21.80;7.25;;;;;;;;;;5074760;28;20047;-69
2023/11/10 01:26:18;;;;;;;16.85;6.60;;;;;;;;;;5074300;28;20504;-69
2023/11/10 01:28:43;;;;;;;15.93;6.03;;;;;;;;;;5074574;28;20016;-69
2023/11/10 01:31:09;;;;;;;14.70;6.75;;;;;;;;;;5074960;28;20025;-69
2023/11/10 01:33:35;;;;;;;14.45;6.63;;;;;;;;;;5074342;28;20428;-69
2023/11/10 01:36:00;;;;;;;19.50;6.47;;;;;;;;;;5074474;28;20031;-69
2023/11/10 01:38:26;;;;;;;14.13;5.50;;;;;;;;;;5056737;28;20016;-69
2023/11/10 01:40:51;;;;;;;12.20;5.80;;;;;;;;;;5073793;28;20021;-69
2023/11/10 01:43:16;;;;;;;11.15;5.63;;;;;;;;;;5074257;28;20421;-69
2023/11/10 01:45:43;;;;;;;15.25;5.60;;;;;;;;;;5074217;28;20115;-69
2023/11/10 01:48:12;;;;;;;14.02;5.93;;;;;;;;;;5073857;28;20448;-69
2023/11/10 01:50:39;;;;;;;11.15;4.53;;;;;;;;;;5073617;28;20024;-69
2023/11/10 01:53:06;;;;;;;11.52;4.50;;;;;;;;;;5056817;28;20028;-69
2023/11/10 01:55:32;;;;;;;11.90;5.13;;;;;;;;;;5056293;28;20021;-69
2023/11/10 01:57:57;;;;;;;11.57;3.85;;;;;;;;;;5055023;28;20103;-70
2023/11/10 02:00:26;;;;;;;11.30;4.00;;;;;;;;;;5054763;28;20088;-70
2023/11/10 02:02:51;;;;;;;8.65;4.20;;;;;;;;;;5054600;28;20389;-70
2023/11/10 02:05:17;;;;;;;9.82;4.07;;;;;;;;;;5053902;28;20020;-69
2023/11/10 02:07:43;;;;;;;8.60;4.28;;;;;;;;;;5062524;28;20036;-69
2023/11/10 02:10:09;;;;;;;11.75;4.47;;;;;;;;;;5073537;28;20103;-69
2023/11/10 02:12:35;;;;;;;8.85;4.30;;;;;;;;;;5073664;28;20024;-69
2023/11/10 02:15:01;;;;;;;12.20;4.18;;;;;;;;;;5073344;28;20077;-69
2023/11/10 02:17:27;;;;;;;10.88;4.70;;;;;;;;;;5073951;28;20444;-69
2023/11/10 02:19:52;;;;;;;9.77;4.15;;;;;;;;;;5073417;28;20017;-69
2023/11/10 02:22:17;;;;;;;14.50;4.22;;;;;;;;;;5073832;28;20033;-69
2023/11/10 02:24:44;;;;;;;10.95;4.43;;;;;;;;;;5055732;28;20029;-69
2023/11/10 02:27:10;;;;;;;11.05;4.28;;;;;;;;;;5052708;28;20036;-69
2023/11/10 02:29:39;;;;;;;12.38;5.57;;;;;;;;;;5055978;28;20355;-69
2023/11/10 02:32:05;;;;;;;19.17;5.18;;;;;;;;;;5035481;28;20028;-70
2023/11/10 02:34:30;;;;;;;13.82;5.20;;;;;;;;;;5055263;28;20100;-69
2023/11/10 02:36:57;;;;;;;8.70;4.28;;;;;;;;;;5073620;28;20035;-69
2023/11/10 02:39:23;;;;;;;14.73;4.50;;;;;;;;;;5073266;28;20389;-69
2023/11/10 02:41:52;;;;;;;10.52;4.40;;;;;;;;;;5072878;28;20024;-69
2023/11/10 02:44:17;;;;;;;9.85;4.50;;;;;;;;;;5073456;28;20099;-69
2023/11/10 02:46:42;;;;;;;12.25;5.07;;;;;;;;;;5073552;28;20044;-69
2023/11/10 02:49:08;;;;;;;11.20;5.22;;;;;;;;;;5073561;28;20469;-69
2023/11/10 02:51:33;;;;;;;12.10;4.72;;;;;;;;;;5072627;28;20017;-69
2023/11/10 02:53:58;;;;;;;8.35;4.35;;;;;;;;;;5073418;28;20530;-69
2023/11/10 02:56:24;;;;;;;13.43;5.10;;;;;;;;;;5073249;28;20020;-69
2023/11/10 02:58:49;;;;;;;10.20;4.93;;;;;;;;;;5073573;28;20122;-69
2023/11/10 03:01:22;;;;;;;13.10;5.13;;;;;;;;;;5072557;28;20056;-69
2023/11/10 03:03:47;;;;;;;11.35;5.20;;;;;;;;;;5055500;28;20020;-69
2023/11/10 03:06:12;;;;;;;16.20;5.07;;;;;;;;;;5055211;28;20097;-69
2023/11/10 03:08:38;;;;;;;11.35;5.55;;;;;;;;;;5073060;28;20055;-69
2023/11/10 03:11:03;;;;;;;13.27;5.55;;;;;;;;;;5055215;28;20033;-69
2023/11/10 03:13:29;;;;;;;20.13;6.28;;;;;;;;;;5072980;28;20055;-69
2023/11/10 03:15:54;;;;;;;12.40;5.95;;;;;;;;;;5072399;28;20035;-69
2023/11/10 03:18:19;;;;;;;16.15;7.50;;;;;;;;;;5072848;28;20035;-69
2023/11/10 03:20:45;;;;;;;11.82;5.68;;;;;;;;;;5073440;28;20033;-69
2023/11/10 03:23:10;;;;;;;10.77;6.78;;;;;;;;;;5073052;28;20024;-69
2023/11/10 03:25:35;;;;;;;16.38;7.50;;;;;;;;;;5072571;28;20448;-69
2023/11/10 03:28:01;;;;;;;18.33;7.47;;;;;;;;;;5072890;28;20024;-69
2023/11/10 03:30:27;;;;;;;25.15;8.32;;;;;;;;;;5072387;28;20397;-69
2023/11/10 03:32:52;;;;;;;16.40;6.63;;;;;;;;;;5073189;28;20047;-69
2023/11/10 03:35:18;;;;;;;21.88;7.68;;;;;;;;;;5072779;28;20036;-69
2023/11/10 03:37:43;;;;;;;19.50;7.22;;;;;;;;;;5054641;28;20082;-69
2023/11/10 03:40:10;;;;;;;14.77;7.05;;;;;;;;;;5075509;28;20456;-69
2023/11/10 03:42:36;;;;;;;19.42;8.10;;;;;;;;;;5057373;28;20516;-69
2023/11/10 03:45:03;;;;;;;16.52;7.65;;;;;;;;;;5064762;28;20025;-69
2023/11/10 03:47:28;;;;;;;17.95;8.05;;;;;;;;;;5056261;28;20032;-69
2023/11/10 03:49:54;;;;;;;18.00;7.57;;;;;;;;;;5060862;28;20020;-69
2023/11/10 03:52:19;;;;;;;14.65;6.85;;;;;;;;;;5076582;28;20028;-70
2023/11/10 03:54:44;;;;;;;20.25;8.63;;;;;;;;;;5075590;28;20117;-69
2023/11/10 03:57:10;;;;;;;19.77;7.97;;;;;;;;;;5076533;28;20029;-69
2023/11/10 03:59:38;;;;;;;18.23;8.35;;;;;;;;;;5076634;28;20036;-69
2023/11/10 04:02:04;;;;;;;23.98;8.38;;;;;;;;;;5075557;28;20020;-69
2023/11/10 04:04:30;;;;;;;19.38;8.25;;;;;;;;;;5072902;28;20020;-69
2023/11/10 04:06:55;;;;;;;16.63;7.93;;;;;;;;;;5056148;28;20036;-69
2023/11/10 04:09:21;;;;;;;23.05;9.40;;;;;;;;;;5055843;28;20029;-69
2023/11/10 04:11:46;;;;;;;17.58;8.02;;;;;;;;;;5069889;28;20024;-69
2023/11/10 04:14:12;;;;;;;15.73;7.55;;;;;;;;;;5075773;28;20124;-69
2023/11/10 04:16:37;;;;;;;21.05;8.13;;;;;;;;;;5075970;28;20039;-69
2023/11/10 04:19:03;;;;;;;20.77;8.70;;;;;;;;;;5075856;28;20034;-69
2023/11/10 04:21:29;;;;;;;17.48;8.52;;;;;;;;;;5058374;28;20082;-69
2023/11/10 04:23:54;;;;;;;14.57;6.53;;;;;;;;;;5075048;28;20020;-69
2023/11/10 04:26:20;;;;;;;20.30;8.52;;;;;;;;;;5075807;28;20027;-69
2023/11/10 04:28:48;;;;;;;18.70;8.15;;;;;;;;;;5062721;28;20029;-69
2023/11/10 04:31:14;;;;;;;19.85;7.68;;;;;;;;;;5074921;28;20111;-69
2023/11/10 04:33:40;;;;;;;14.63;7.53;;;;;;;;;;5057901;28;20021;-69
2023/11/10 04:36:06;;;;;;;25.73;9.23;;;;;;;;;;5075461;28;20024;-69
2023/11/10 04:38:32;;;;;;;19.55;6.57;;;;;;;;;;5066464;28;20490;-69
2023/11/10 04:40:58;;;;;;;19.85;7.20;;;;;;;;;;5058086;28;20041;-69
2023/11/10 04:43:23;;;;;;;19.02;7.05;;;;;;;;;;5075190;28;20032;-69
2023/11/10 04:45:48;;;;;;;17.35;7.25;;;;;;;;;;5075495;28;20424;-69
2023/11/10 04:48:14;;;;;;;12.50;6.82;;;;;;;;;;5072654;28;20039;-69
2023/11/10 04:50:39;;;;;;;18.95;6.97;;;;;;;;;;5074885;28;20031;-69
2023/11/10 04:53:04;;;;;;;12.48;6.85;;;;;;;;;;5071823;28;20024;-69
2023/11/10 04:55:30;;;;;;;12.98;7.80;;;;;;;;;;5059648;28;20477;-69
2023/11/10 04:57:55;;;;;;;18.48;7.70;;;;;;;;;;5075206;28;20078;-69
2023/11/10 05:00:23;;;;;;;13.43;6.70;;;;;;;;;;5075229;28;20021;-69
2023/11/10 05:02:49;;;;;;;17.33;7.47;;;;;;;;;;5074732;28;20035;-69
2023/11/10 05:05:14;;;;;;;23.08;8.07;;;;;;;;;;5074837;28;20108;-69
2023/11/10 05:07:41;;;;;;;18.95;7.47;;;;;;;;;;5075130;28;20028;-69
2023/11/10 05:10:07;;;;;;;20.13;7.90;;;;;;;;;;5047794;28;20402;-69
2023/11/10 05:12:34;;;;;;;14.73;6.53;;;;;;;;;;5055034;28;20021;-69
2023/11/10 05:15:01;;;;;;;14.48;6.65;;;;;;;;;;5057396;28;20028;-69
2023/11/10 05:17:26;;;;;;;15.65;7.03;;;;;;;;;;5075026;28;20081;-69
2023/11/10 05:19:52;;;;;;;14.73;7.68;;;;;;;;;;5074494;28;20427;-69
2023/11/10 05:22:17;;;;;;;20.50;7.05;;;;;;;;;;5074887;28;20028;-69
2023/11/10 05:24:43;;;;;;;10.27;5.85;;;;;;;;;;5074597;28;20063;-69
2023/11/10 05:27:09;;;;;;;15.32;6.32;;;;;;;;;;5056665;28;20074;-69
2023/11/10 05:29:35;;;;;;;17.65;6.50;;;;;;;;;;5074579;28;20025;-69
2023/11/10 05:32:00;;;;;;;18.35;6.93;;;;;;;;;;5057047;28;20036;-69
2023/11/10 05:34:26;;;;;;;15.32;6.13;;;;;;;;;;5074770;28;20029;-69
2023/11/10 05:36:51;;;;;;;14.70;7.93;;;;;;;;;;5074605;28;20035;-69
2023/11/10 05:39:16;;;;;;;16.65;6.90;;;;;;;;;;5074406;28;20020;-69
2023/11/10 05:41:44;;;;;;;9.98;5.72;;;;;;;;;;5074838;28;20042;-69
2023/11/10 05:44:10;;;;;;;15.52;6.97;;;;;;;;;;5074688;28;20371;-69
2023/11/10 05:46:35;;;;;;;13.95;5.88;;;;;;;;;;5074655;28;20029;-69
2023/11/10 05:49:01;;;;;;;12.88;6.10;;;;;;;;;;5074384;28;20025;-69
2023/11/10 05:51:27;;;;;;;12.25;5.88;;;;;;;;;;5074101;28;20035;-69
2023/11/10 05:53:52;;;;;;;17.30;6.13;;;;;;;;;;5074657;28;20021;-69
2023/11/10 05:56:17;;;;;;;14.07;6.45;;;;;;;;;;5074452;28;20051;-69
2023/11/10 05:58:43;;;;;;;13.50;5.55;;;;;;;;;;5074309;28;20016;-69
2023/11/10 06:01:09;;;;;;;13.35;5.63;;;;;;;;;;5073906;28;20025;-69
2023/11/10 06:03:34;;;;;;;11.00;6.00;;;;;;;;;;5074067;28;20024;-69
2023/11/10 06:05:59;;;;;;;9.07;4.38;;;;;;;;;;5073683;28;20024;-69
2023/11/10 06:08:25;;;;;;;12.77;6.25;;;;;;;;;;5073951;28;20024;-69
2023/11/10 06:10:52;;;;;;;16.58;5.40;;;;;;;;;;5074379;28;20024;-69
2023/11/10 06:13:21;;;;;;;12.50;4.78;;;;;;;;;;5074264;28;20028;-69
2023/11/10 06:15:46;;;;;;;10.68;5.38;;;;;;;;;;5073957;28;20028;-69
2023/11/10 06:18:11;;;;;;;11.40;5.57;;;;;;;;;;5073675;28;20035;-69
2023/11/10 06:20:37;;;;;;;6.35;4.13;;;;;;;;;;5074042;28;20033;-69
2023/11/10 06:23:02;;;;;;;10.50;4.28;;;;;;;;;;5073869;28;20024;-69
2023/11/10 06:25:28;;;;;;;8.15;4.40;;;;;;;;;;5073745;28;20408;-69
2023/11/10 06:27:54;;;;;;;10.73;4.63;;;;;;;;;;5055565;28;20056;-69
2023/11/10 06:30:19;;;;;;;13.35;5.05;;;;;;;;;;5056001;28;20048;-69
2023/11/10 06:32:44;;;;;;;15.68;4.72;;;;;;;;;;5074065;28;20086;-69
2023/11/10 06:35:10;;;;;;;13.60;3.92;;;;;;;;;;5074069;28;20028;-69
2023/11/10 06:37:35;;;;;;;7.18;3.80;;;;;;;;;;5073285;28;20047;-69
2023/11/10 06:40:01;;;;;;;10.23;4.35;;;;;;;;;;5074043;28;20553;-69
2023/11/10 06:42:28;;;;;;;10.65;4.32;;;;;;;;;;5073616;28;20021;-69
2023/11/10 06:44:53;;;;;;;7.13;3.10;;;;;;;;;;5073631;28;20027;-69
2023/11/10 06:47:18;;;;;;;10.13;4.30;;;;;;;;;;5073759;28;20028;-69
2023/11/10 06:49:44;;;;;;;11.65;3.97;;;;;;;;;;5073399;28;20029;-69
2023/11/10 06:52:10;;;;;;;5.03;3.05;;;;;;;;;;5073731;28;20028;-69
2023/11/10 06:54:35;;;;;;;9.50;3.58;;;;;;;;;;5055623;28;20040;-69
2023/11/10 06:57:01;;;;;;;10.05;2.90;;;;;;;;;;5072896;28;20047;-69
2023/11/10 06:59:28;;;;;;;8.13;3.58;;;;;;;;;;5073169;28;20024;-69
2023/11/10 07:01:54;;;;;;;5.63;3.30;;;;;;;;;;5073094;28;20084;-69
2023/11/10 07:04:19;;;;;;;6.80;3.45;;;;;;;;;;5073188;28;20103;-69
2023/11/10 07:06:45;;;;;;;13.63;3.42;;;;;;;;;;5072402;28;20028;-69
2023/11/10 07:09:12;;;;;;;8.82;3.17;;;;;;;;;;5072930;28;20067;-69
2023/11/10 07:11:38;;;;;;;7.88;3.13;;;;;;;;;;5073214;28;20025;-69
2023/11/10 07:14:03;;;;;;;10.05;3.67;;;;;;;;;;5075794;28;20036;-69
2023/11/10 07:16:28;;;;;;;6.93;3.33;;;;;;;;;;5076694;28;20032;-69
2023/11/10 07:18:54;;;;;;;6.03;2.88;;;;;;;;;;5076851;28;20051;-69
2023/11/10 07:21:19;;;;;;;9.02;3.33;;;;;;;;;;5077052;28;20024;-69
2023/11/10 07:23:44;;;;;;;10.20;3.03;;;;;;;;;;5076991;28;20032;-69
2023/11/10 07:26:12;;;;;;;6.70;3.38;;;;;;;;;;5076317;28;20032;-69
2023/11/10 07:28:37;;;;;;;7.03;3.13;;;;;;;;;;5076638;28;20103;-69
2023/11/10 07:31:02;;;;;;;8.15;2.83;;;;;;;;;;5076650;28;20493;-69
2023/11/10 07:33:28;;;;;;;6.30;3.22;;;;;;;;;;5077061;28;20064;-69
2023/11/10 07:35:53;;;;;;;5.97;3.20;;;;;;;;;;5076618;28;20029;-69
2023/11/10 07:38:18;;;;;;;9.05;2.63;;;;;;;;;;5076315;28;20028;-69
2023/11/10 07:40:44;;;;;;;6.20;3.13;;;;;;;;;;5076804;28;20068;-69
2023/11/10 07:43:10;;;;;;;9.07;2.83;;;;;;;;;;5076619;28;20025;-68
2023/11/10 07:45:35;;;;;;;6.35;2.97;;;;;;;;;;5076365;28;20028;-68
2023/11/10 07:48:00;;;;;;;6.45;3.30;;;;;;;;;;5076456;28;20374;-69
2023/11/10 07:50:26;;;;;;;8.63;3.45;;;;;;;;;;5076640;28;20024;-69
2023/11/10 07:52:51;;;;;;;10.07;2.75;;;;;;;;;;5075867;28;20543;-69
2023/11/10 07:55:17;;;;;;;5.80;2.45;;;;;;;;;;5076229;28;20068;-69
2023/11/10 07:57:43;;;;;;;11.55;4.45;;;;;;;;;;5058308;28;20032;-69
2023/11/10 08:00:11;;;;;;;6.28;3.25;;;;;;;;;;5058291;28;20393;-69
2023/11/10 08:02:36;;;;;;;7.05;3.00;;;;;;;;;;5076012;28;20067;-69
2023/11/10 08:05:02;;;;;;;8.02;3.10;;;;;;;;;;5076039;28;20096;-69
2023/11/10 08:07:28;;;;;;;9.45;2.83;;;;;;;;;;5076053;28;20499;-69
2023/11/10 08:09:53;;;;;;;6.72;3.33;;;;;;;;;;5058371;28;20024;-68
2023/11/10 08:12:19;;;;;;;5.53;3.45;;;;;;;;;;5058218;28;20432;-69
2023/11/10 08:14:45;;;;;;;4.63;3.08;;;;;;;;;;5075907;28;20046;-69
2023/11/10 08:17:11;;;;;;;7.40;3.65;;;;;;;;;;5075509;28;20039;-69
2023/11/10 08:19:37;;;;;;;5.35;3.20;;;;;;;;;;5076148;28;20070;-69
2023/11/10 08:22:02;;;;;;;6.50;3.00;;;;;;;;;;5075632;28;20024;-69
2023/11/10 08:24:30;;;;;;;7.93;3.38;;;;;;;;;;5074889;28;20021;-69
2023/11/10 08:26:55;;;;;;;10.90;3.33;;;;;;;;;;5069311;28;20025;-69
2023/11/10 08:29:21;;;;;;;9.57;3.35;;;;;;;;;;5055536;28;20074;-69
2023/11/10 08:31:48;;;;;;;5.07;3.75;;;;;;;;;;5058876;28;20052;-69
2023/11/10 08:34:14;;;;;;;4.65;3.10;;;;;;;;;;5055377;28;20025;-69
2023/11/10 08:36:40;;;;;;;5.43;2.97;;;;;;;;;;5045717;28;20021;-69
2023/11/10 08:39:06;;;;;;;8.98;3.35;;;;;;;;;;5061245;28;20443;-69
2023/11/10 08:41:31;;;;;;;7.07;3.20;;;;;;;;;;5075261;28;20070;-69
2023/11/10 08:43:57;;;;;;;7.75;3.00;;;;;;;;;;5057095;28;20024;-69
2023/11/10 08:46:22;;;;;;;7.38;3.22;;;;;;;;;;5075671;28;20036;-69
2023/11/10 08:48:48;;;;;;;4.90;3.35;;;;;;;;;;5057293;28;20048;-69
2023/11/10 08:51:15;;;;;;;10.75;3.88;;;;;;;;;;5054611;28;20535;-68
2023/11/10 08:53:42;;;;;;;5.28;3.55;;;;;;;;;;5055044;28;20023;-69
2023/11/10 08:56:07;;;;;;;12.38;3.88;;;;;;;;;;5055105;28;20031;-69
2023/11/10 08:58:34;;;;;;;7.93;4.22;;;;;;;;;;5063678;28;20017;-69
2023/11/10 09:00:59;;;;;;;8.10;3.85;;;;;;;;;;5071289;28;20431;-69
2023/11/10 09:03:25;;;;;;;5.40;3.80;;;;;;;;;;5064586;28;20119;-69
2023/11/10 09:05:50;;;;;;;9.73;4.97;;;;;;;;;;5054945;28;20108;-69
2023/11/10 09:08:16;;;;;;;7.65;4.32;;;;;;;;;;5054568;28;20036;-69
2023/11/10 09:10:41;;;;;;;9.93;3.78;;;;;;;;;;5062223;28;20034;-69
2023/11/10 09:13:07;;;;;;;7.57;3.65;;;;;;;;;;5056485;28;20114;-69
2023/11/10 09:15:33;;;;;;;12.70;4.60;;;;;;;;;;5074272;28;20027;-69
2023/11/10 09:17:59;;;;;;;11.10;4.13;;;;;;;;;;5074190;28;20051;-69
2023/11/10 09:20:24;;;;;;;10.02;4.45;;;;;;;;;;5074158;28;20028;-69
2023/11/10 09:22:49;;;;;;;7.65;4.25;;;;;;;;;;5073409;28;20028;-69
2023/11/10 09:25:20;;;;;;;13.90;5.78;;;;;;;;;;5073783;28;20091;-69
2023/11/10 09:27:45;;;;;;;10.80;4.70;;;;;;;;;;5069524;28;20111;-69
2023/11/10 09:30:11;;;;;;;12.00;4.47;;;;;;;;;;5074220;28;20557;-69
2023/11/10 09:32:37;;;;;;;8.57;4.53;;;;;;;;;;5067896;28;20498;-69
2023/11/10 09:35:03;;;;;;;11.00;5.00;;;;;;;;;;5057856;28;20105;-69
2023/11/10 09:37:28;;;;;;;11.15;4.72;;;;;;;;;;5073678;28;20162;-69
2023/11/10 09:39:53;;;;;;;10.40;5.10;;;;;;;;;;5074090;28;20501;-69
2023/11/10 09:42:19;;;;;;;8.50;4.72;;;;;;;;;;5073850;28;20035;-69
2023/11/10 09:44:58;;;;;;;7.03;4.05;;;;;;;;;;5074163;28;20027;-69
2023/11/10 09:47:25;;;;;;;7.57;3.95;;;;;;;;;;5056682;28;20031;-69
2023/11/10 09:49:51;;;;;;;7.40;4.60;;;;;;;;;;5073185;28;20473;-68
2023/11/10 09:52:18;;;;;;;8.27;4.53;;;;;;;;;;5073631;28;20028;-68
2023/11/10 09:54:46;;;;;;;10.35;4.60;;;;;;;;;;5055807;28;20112;-69
2023/11/10 09:57:15;;;;;;;10.00;4.32;;;;;;;;;;5051751;28;20025;-68
2023/11/10 09:59:41;;;;;;;10.10;5.63;;;;;;;;;;5035379;28;20119;-69
2023/11/10 10:02:10;;;;;;;9.27;4.80;;;;;;;;;;5054016;28;20502;-69
2023/11/10 10:04:36;;;;;;;10.20;4.25;;;;;;;;;;5057204;28;20440;-69
2023/11/10 10:07:01;;;;;;;8.23;4.53;;;;;;;;;;5053748;28;20031;-69
2023/11/10 10:09:27;;;;;;;12.35;5.28;;;;;;;;;;5049374;28;20021;-69
2023/11/10 10:11:55;;;;;;;9.27;4.53;;;;;;;;;;5053731;28;20029;-69
2023/11/10 10:14:21;;;;;;;11.50;5.10;;;;;;;;;;5071119;28;20043;-69
2023/11/10 10:16:53;;;;;;;8.15;5.20;;;;;;;;;;5050708;28;20517;-69
2023/11/10 10:19:29;;;;;;;9.35;5.07;;;;;;;;;;5052997;28;20021;-69
2023/11/10 10:21:54;;;;;;;11.20;6.10;;;;;;;;;;5055930;28;20021;-69
2023/11/10 10:24:20;;;;;;;11.15;4.72;;;;;;;;;;5052644;28;20516;-68
2023/11/10 10:26:48;;;;;;;9.65;5.38;;;;;;;;;;5062263;28;20035;-69
2023/11/10 10:29:14;;;;;;;11.77;5.10;;;;;;;;;;5055195;28;20075;-69
2023/11/10 10:31:40;;;;;;;14.35;5.40;;;;;;;;;;5073412;28;20024;-69
2023/11/10 10:34:06;;;;;;;8.95;4.97;;;;;;;;;;5054936;28;20535;-69
2023/11/10 10:36:31;;;;;;;9.07;5.95;;;;;;;;;;5073173;28;20025;-69
2023/11/10 10:38:58;;;;;;;12.65;5.25;;;;;;;;;;5060320;28;20066;-69
2023/11/10 10:41:25;;;;;;;7.65;4.47;;;;;;;;;;5035138;28;20070;-69
2023/11/10 10:43:52;;;;;;;13.93;5.38;;;;;;;;;;5052809;28;20029;-69
2023/11/10 10:46:21;;;;;;;9.95;5.20;;;;;;;;;;5035079;28;20045;-69
2023/11/10 10:48:49;;;;;;;9.32;4.72;;;;;;;;;;5061802;28;20481;-69
2023/11/10 10:51:16;;;;;;;14.48;5.20;;;;;;;;;;5073011;28;20086;-69
2023/11/10 10:53:43;;;;;;;8.50;4.32;;;;;;;;;;5054162;28;20039;-69
2023/11/10 10:56:08;;;;;;;11.85;4.97;;;;;;;;;;5073038;28;20111;-69
2023/11/10 10:58:34;;;;;;;10.10;4.35;;;;;;;;;;5072694;28;20071;-69
2023/11/10 11:01:03;;;;;;;7.40;4.13;;;;;;;;;;5055222;28;20486;-69
2023/11/10 11:03:46;;;;;;;11.10;4.82;;;;;;;;;;5054728;28;20081;-69
2023/11/10 11:06:49;;;;;;;8.80;4.47;;;;;;;;;;5054827;28;20047;-70
2023/11/10 11:09:19;;;;;;;13.00;5.05;;;;;;;;;;5071743;28;20083;-70
2023/11/10 11:11:56;;;;;;;12.27;4.15;;;;;;;;;;5072663;28;20044;-70
2023/11/10 11:14:50;;;;;;;11.38;4.35;;;;;;;;;;5064045;28;20029;-70
2023/11/10 11:17:50;;;;;;;8.07;3.92;;;;;;;;;;5054830;28;20035;-70
2023/11/10 11:20:16;;;;;;;10.77;3.70;;;;;;;;;;5038575;28;20360;-69
2023/11/10 11:22:43;;;;;;;10.07;4.63;;;;;;;;;;5034461;28;20108;-69
2023/11/10 11:25:09;;;;;;;4.88;3.38;;;;;;;;;;5052593;28;20029;-69
2023/11/10 11:27:35;;;;;;;9.65;3.90;;;;;;;;;;5050781;28;20159;-69
2023/11/10 11:30:08;;;;;;;11.10;4.70;;;;;;;;;;5052575;28;20029;-69
2023/11/10 11:32:40;;;;;;;8.00;3.72;;;;;;;;;;5051897;28;20040;-69
2023/11/10 11:35:10;;;;;;;6.95;4.18;;;;;;;;;;5052749;28;20096;-69
2023/11/10 11:37:37;;;;;;;12.10;4.78;;;;;;;;;;5035315;28;20052;-69
2023/11/10 11:40:05;;;;;;;11.02;4.15;;;;;;;;;;5052887;28;20017;-69
2023/11/10 11:42:38;;;;;;;8.20;3.95;;;;;;;;;;5052942;28;20055;-69
2023/11/10 11:45:16;;;;;;;12.15;3.65;;;;;;;;;;5052621;28;20037;-69
2023/11/10 11:47:42;;;;;;;11.82;4.10;;;;;;;;;;5052328;28;20031;-69
2023/11/10 11:50:12;;;;;;;6.93;3.60;;;;;;;;;;5052723;28;20363;-69
2023/11/10 11:52:38;;;;;;;11.02;4.20;;;;;;;;;;5041803;28;20020;-69
2023/11/10 11:55:04;;;;;;;8.38;3.55;;;;;;;;;;5061627;28;20107;-69
2023/11/10 11:57:34;;;;;;;6.75;4.03;;;;;;;;;;5066813;28;20111;-70
2023/11/10 12:00:00;;;;;;;10.80;4.22;;;;;;;;;;5056302;28;20033;-69
2023/11/10 12:02:25;;;;;;;10.43;3.47;;;;;;;;;;5052584;28;20048;-69
2023/11/10 12:04:51;;;;;;;9.07;3.95;;;;;;;;;;5076334;28;20519;-70
2023/11/10 12:07:18;;;;;;;7.72;3.72;;;;;;;;;;5075951;28;20381;-70
2023/11/10 12:09:43;;;;;;;10.27;4.95;;;;;;;;;;5050630;28;20099;-70
2023/11/10 12:12:10;;;;;;;8.70;4.05;;;;;;;;;;5070203;28;20452;-70
2023/11/10 12:14:35;;;;;;;9.60;3.60;;;;;;;;;;5058210;28;20020;-70
2023/11/10 12:17:00;;;;;;;11.88;4.35;;;;;;;;;;5075722;28;20028;-69
2023/11/10 12:19:26;;;;;;;14.27;4.60;;;;;;;;;;5076218;28;20448;-69
2023/11/10 12:21:51;;;;;;;10.13;4.13;;;;;;;;;;5075613;28;20027;-69
2023/11/10 12:24:19;;;;;;;13.38;4.50;;;;;;;;;;5075532;28;20024;-70
2023/11/10 12:26:45;;;;;;;11.15;4.85;;;;;;;;;;5058335;28;20045;-70
2023/11/10 12:29:17;;;;;;;9.65;4.13;;;;;;;;;;5057751;28;20371;-69
2023/11/10 12:31:43;;;;;;;12.77;4.38;;;;;;;;;;5075425;28;20027;-69
2023/11/10 12:34:08;;;;;;;10.90;4.22;;;;;;;;;;5074684;28;20024;-69
2023/11/10 12:36:35;;;;;;;9.35;4.10;;;;;;;;;;5075374;28;20497;-69
2023/11/10 12:39:06;;;;;;;10.45;4.57;;;;;;;;;;5040904;28;20027;-69
2023/11/10 12:41:32;;;;;;;8.95;3.85;;;;;;;;;;5058055;28;20338;-69
2023/11/10 12:43:57;;;;;;;13.48;4.82;;;;;;;;;;5074774;28;20033;-69
2023/11/10 12:46:23;;;;;;;14.88;4.40;;;;;;;;;;5074853;28;20055;-70
2023/11/10 12:48:54;;;;;;;6.30;4.00;;;;;;;;;;5073582;28;20618;-69
2023/11/10 12:51:23;;;;;;;9.55;4.10;;;;;;;;;;5057374;28;20517;-69
2023/11/10 12:53:59;;;;;;;9.13;4.35;;;;;;;;;;5055470;28;20037;-69
2023/11/10 12:56:25;;;;;;;11.50;4.03;;;;;;;;;;5072368;28;20024;-69
2023/11/10 12:58:51;;;;;;;5.88;3.85;;;;;;;;;;5070645;28;20055;-69
2023/11/10 13:01:16;;;;;;;6.75;4.07;;;;;;;;;;5063176;28;20024;-69
2023/11/10 13:03:43;;;;;;;7.93;3.65;;;;;;;;;;5039028;28;20060;-69
2023/11/10 13:06:09;;;;;;;12.82;4.68;;;;;;;;;;5054253;28;20037;-70
2023/11/10 13:08:34;;;;;;;9.88;3.80;;;;;;;;;;5054511;28;20524;-69
2023/11/10 13:11:00;;;;;;;8.35;4.22;;;;;;;;;;5065895;28;20120;-69
2023/11/10 13:13:26;;;;;;;10.25;4.18;;;;;;;;;;5075651;28;20060;-69
2023/11/10 13:15:54;;;;;;;6.93;3.45;;;;;;;;;;5074579;28;20120;-70
2023/11/10 13:18:19;;;;;;;7.45;3.97;;;;;;;;;;5059143;28;20048;-69
2023/11/10 13:20:45;;;;;;;9.50;4.25;;;;;;;;;;5054068;28;20025;-69
2023/11/10 13:23:10;;;;;;;5.40;3.45;;;;;;;;;;5065432;28;20460;-69
2023/11/10 13:25:36;;;;;;;8.50;3.88;;;;;;;;;;5059717;28;20036;-69
2023/11/10 13:28:06;;;;;;;7.32;3.78;;;;;;;;;;5058343;28;20021;-70
2023/11/10 13:30:33;;;;;;;9.88;3.63;;;;;;;;;;5054102;28;20027;-69
2023/11/10 13:32:58;;;;;;;6.70;3.45;;;;;;;;;;5054762;28;20032;-69
2023/11/10 13:35:24;;;;;;;6.22;3.45;;;;;;;;;;5074194;28;20024;-70
2023/11/10 13:37:50;;;;;;;10.13;3.83;;;;;;;;;;5072766;28;20097;-69
2023/11/10 13:40:17;;;;;;;6.10;3.60;;;;;;;;;;5056350;28;20095;-69
2023/11/10 13:42:43;;;;;;;8.30;3.70;;;;;;;;;;5073850;28;20055;-70
2023/11/10 13:45:12;;;;;;;8.95;3.47;;;;;;;;;;5073561;28;20025;-70
2023/11/10 13:47:40;;;;;;;9.50;3.42;;;;;;;;;;5056329;28;20051;-70
2023/11/10 13:50:10;;;;;;;9.18;3.33;;;;;;;;;;5073970;28;20039;-69
2023/11/10 13:52:35;;;;;;;7.30;3.30;;;;;;;;;;5073861;28;20491;-69
2023/11/10 13:55:00;;;;;;;8.32;3.28;;;;;;;;;;5074145;28;20052;-69
2023/11/10 13:57:25;;;;;;;7.25;3.15;;;;;;;;;;5073463;28;20024;-70
2023/11/10 13:59:51;;;;;;;15.80;4.15;;;;;;;;;;5073535;28;20024;-70
2023/11/10 14:02:18;;;;;;;9.43;3.25;;;;;;;;;;5073633;28;20017;-70
2023/11/10 14:04:45;;;;;;;6.45;4.00;;;;;;;;;;5073652;28;20103;-69
2023/11/10 14:07:11;;;;;;;9.88;3.45;;;;;;;;;;5073927;28;20053;-69
2023/11/10 14:09:36;;;;;;;7.60;3.67;;;;;;;;;;5066515;28;20033;-70
2023/11/10 14:12:02;;;;;;;7.25;2.72;;;;;;;;;;5064363;28;20024;-70
2023/11/10 14:14:33;;;;;;;7.20;2.97;;;;;;;;;;5070653;28;20028;-70
2023/11/10 14:16:58;;;;;;;6.22;2.60;;;;;;;;;;5056263;28;20036;-70
2023/11/10 14:19:26;;;;;;;6.53;2.80;;;;;;;;;;5055487;28;20016;-69
2023/11/10 14:21:51;;;;;;;4.78;2.40;;;;;;;;;;5064910;28;20027;-70
2023/11/10 14:24:16;;;;;;;9.30;3.63;;;;;;;;;;5071462;28;20024;-70
2023/11/10 14:26:42;;;;;;;6.57;3.05;;;;;;;;;;5059280;28;20017;-69
2023/11/10 14:29:09;;;;;;;10.02;3.22;;;;;;;;;;5056258;28;20079;-69
2023/11/10 14:31:34;;;;;;;13.00;3.65;;;;;;;;;;5053355;28;20513;-69